sensor_id;sensor_type;location;lat;lon;timestamp;pressure;altitude;pressure_sealevel;temperature;humidity
20077;BME280;12348;42.710;23.378;2023-05-24T00:01:00;94942.16;;;11.36;100.00
20077;BME280;12348;42.710;23.378;2023-05-24T00:03:27;94935.34;;;11.25;100.00
20077;BME280;12348;42.710;23.378;2023-05-24T00:05:55;94938.13;;;11.20;100.00
20077;BME280;12348;42.710;23.378;2023-05-24T00:08:22;94936.94;;;11.12;100.00
20077;BME280;12348;42.710;23.378;2023-05-24T00:10:48;94939.72;;;11.07;100.00
20077;BME280;12348;42.710;23.378;2023-05-24T00:13:17;94938.50;;;11.00;100.00
20077;BME280;12348;42.710;23.378;2023-05-24T00:15:44;94931.31;;;10.95;100.00
20077;BME280;12348;42.710;23.378;2023-05-24T00:18:10;94934.31;;;10.93;100.00
20077;BME280;12348;42.710;23.378;2023-05-24T00:20:37;94934.59;;;10.92;100.00
20077;BME280;12348;42.710;23.378;2023-05-24T00:23:05;94936.38;;;10.83;100.00
20077;BME280;12348;42.710;23.378;2023-05-24T00:25:32;94935.28;;;10.84;100.00
20077;BME280;12348;42.710;23.378;2023-05-24T00:27:59;94934.06;;;10.76;100.00
20077;BME280;12348;42.710;23.378;2023-05-24T00:30:27;94933.88;;;10.73;100.00
20077;BME280;12348;42.710;23.378;2023-05-24T00:32:54;94933.22;;;10.62;100.00
20077;BME280;12348;42.710;23.378;2023-05-24T00:35:20;94926.31;;;10.56;100.00
20077;BME280;12348;42.710;23.378;2023-05-24T00:37:47;94931.59;;;10.47;100.00
20077;BME280;12348;42.710;23.378;2023-05-24T00:40:15;94928.69;;;10.43;100.00
20077;BME280;12348;42.710;23.378;2023-05-24T00:42:44;94929.84;;;10.37;100.00
20077;BME280;12348;42.710;23.378;2023-05-24T00:45:11;94922.44;;;10.29;100.00
20077;BME280;12348;42.710;23.378;2023-05-24T00:47:39;94923.66;;;10.18;100.00
20077;BME280;12348;42.710;23.378;2023-05-24T00:50:07;94923.66;;;10.18;100.00
20077;BME280;12348;42.710;23.378;2023-05-24T00:52:36;94931.81;;;10.13;100.00
20077;BME280;12348;42.710;23.378;2023-05-24T00:55:03;94927.88;;;10.05;100.00
20077;BME280;12348;42.710;23.378;2023-05-24T00:57:30;94934.53;;;10.08;100.00
20077;BME280;12348;42.710;23.378;2023-05-24T00:59:58;94928.59;;;10.11;100.00
20077;BME280;12348;42.710;23.378;2023-05-24T01:02:26;94925.75;;;10.02;100.00
20077;BME280;12348;42.710;23.378;2023-05-24T01:04:55;94932.50;;;10.00;100.00
20077;BME280;12348;42.710;23.378;2023-05-24T01:07:26;94934.72;;;9.98;100.00
20077;BME280;12348;42.710;23.378;2023-05-24T01:10:03;94938.56;;;9.91;100.00
20077;BME280;12348;42.710;23.378;2023-05-24T01:12:39;94940.44;;;9.91;100.00
20077;BME280;12348;42.710;23.378;2023-05-24T01:15:16;94935.34;;;9.89;100.00
20077;BME280;12348;42.710;23.378;2023-05-24T01:17:53;94937.97;;;9.94;100.00
20077;BME280;12348;42.710;23.378;2023-05-24T01:20:28;94942.25;;;9.95;100.00
20077;BME280;12348;42.710;23.378;2023-05-24T01:23:06;94950.25;;;10.01;100.00
20077;BME280;12348;42.710;23.378;2023-05-24T01:25:52;94947.13;;;9.93;100.00
20077;BME280;12348;42.710;23.378;2023-05-24T01:28:28;94959.03;;;9.87;100.00
20077;BME280;12348;42.710;23.378;2023-05-24T01:30:57;94957.16;;;9.88;100.00
20077;BME280;12348;42.710;23.378;2023-05-24T01:33:25;94958.81;;;9.84;100.00
20077;BME280;12348;42.710;23.378;2023-05-24T01:35:52;94959.69;;;9.79;100.00
20077;BME280;12348;42.710;23.378;2023-05-24T01:38:19;94950.31;;;9.77;100.00
20077;BME280;12348;42.710;23.378;2023-05-24T01:40:49;94940.34;;;9.77;100.00
20077;BME280;12348;42.710;23.378;2023-05-24T01:43:24;94941.09;;;9.83;100.00
20077;BME280;12348;42.710;23.378;2023-05-24T01:46:00;94940.06;;;9.79;100.00
20077;BME280;12348;42.710;23.378;2023-05-24T01:48:35;94939.31;;;9.73;100.00
20077;BME280;12348;42.710;23.378;2023-05-24T01:51:05;94945.28;;;9.70;100.00
20077;BME280;12348;42.710;23.378;2023-05-24T01:53:34;94944.25;;;9.66;100.00
20077;BME280;12348;42.710;23.378;2023-05-24T01:56:05;94933.16;;;9.73;100.00
20077;BME280;12348;42.710;23.378;2023-05-24T01:58:33;94937.22;;;9.70;100.00
20077;BME280;12348;42.710;23.378;2023-05-24T02:01:03;94930.75;;;9.71;100.00
20077;BME280;12348;42.710;23.378;2023-05-24T02:03:31;94938.84;;;9.71;100.00
20077;BME280;12348;42.710;23.378;2023-05-24T02:05:58;94940.66;;;9.76;100.00
20077;BME280;12348;42.710;23.378;2023-05-24T02:08:24;94936.75;;;9.63;100.00
20077;BME280;12348;42.710;23.378;2023-05-24T02:10:51;94946.94;;;9.66;100.00
20077;BME280;12348;42.710;23.378;2023-05-24T02:13:18;94941.44;;;9.76;100.00
20077;BME280;12348;42.710;23.378;2023-05-24T02:15:45;94937.72;;;9.72;100.00
20077;BME280;12348;42.710;23.378;2023-05-24T02:18:14;94944.69;;;9.73;100.00
20077;BME280;12348;42.710;23.378;2023-05-24T02:20:42;94936.13;;;9.71;100.00
20077;BME280;12348;42.710;23.378;2023-05-24T02:23:09;94931.78;;;9.75;100.00
20077;BME280;12348;42.710;23.378;2023-05-24T02:25:36;94935.41;;;9.84;100.00
20077;BME280;12348;42.710;23.378;2023-05-24T02:28:03;94933.06;;;9.78;100.00
20077;BME280;12348;42.710;23.378;2023-05-24T02:30:30;94940.34;;;9.77;100.00
20077;BME280;12348;42.710;23.378;2023-05-24T02:32:56;94941.38;;;9.81;100.00
20077;BME280;12348;42.710;23.378;2023-05-24T02:35:24;94939.06;;;9.93;100.00
20077;BME280;12348;42.710;23.378;2023-05-24T02:37:51;94934.50;;;9.94;100.00
20077;BME280;12348;42.710;23.378;2023-05-24T02:40:18;94928.66;;;9.87;100.00
20077;BME280;12348;42.710;23.378;2023-05-24T02:42:45;94931.19;;;9.78;100.00
20077;BME280;12348;42.710;23.378;2023-05-24T02:45:12;94934.97;;;9.77;100.00
20077;BME280;12348;42.710;23.378;2023-05-24T02:47:38;94932.28;;;9.77;100.00
20077;BME280;12348;42.710;23.378;2023-05-24T02:50:06;94930.16;;;9.74;100.00
20077;BME280;12348;42.710;23.378;2023-05-24T02:52:35;94932.00;;;9.79;100.00
20077;BME280;12348;42.710;23.378;2023-05-24T02:55:01;94932.66;;;9.89;100.00
20077;BME280;12348;42.710;23.378;2023-05-24T02:57:28;94932.44;;;9.86;100.00
20077;BME280;12348;42.710;23.378;2023-05-24T02:59:58;94934.69;;;9.79;100.00
20077;BME280;12348;42.710;23.378;2023-05-24T03:02:25;94934.53;;;9.70;100.00
20077;BME280;12348;42.710;23.378;2023-05-24T03:04:53;94933.72;;;9.69;100.00
20077;BME280;12348;42.710;23.378;2023-05-24T03:07:19;94931.41;;;9.82;100.00
20077;BME280;12348;42.710;23.378;2023-05-24T03:09:47;94940.00;;;9.84;100.00
20077;BME280;12348;42.710;23.378;2023-05-24T03:12:14;94952.34;;;9.85;100.00
20077;BME280;12348;42.710;23.378;2023-05-24T03:14:44;94952.66;;;10.02;100.00
20077;BME280;12348;42.710;23.378;2023-05-24T03:17:11;94945.84;;;10.10;100.00
20077;BME280;12348;42.710;23.378;2023-05-24T03:19:38;94957.59;;;10.14;100.00
20077;BME280;12348;42.710;23.378;2023-05-24T03:22:05;94961.13;;;10.33;100.00
20077;BME280;12348;42.710;23.378;2023-05-24T03:24:32;94949.97;;;10.91;100.00
20077;BME280;12348;42.710;23.378;2023-05-24T03:27:00;94948.75;;;11.58;100.00
20077;BME280;12348;42.710;23.378;2023-05-24T03:29:28;94950.41;;;12.45;100.00
20077;BME280;12348;42.710;23.378;2023-05-24T03:31:54;94949.44;;;13.08;100.00
20077;BME280;12348;42.710;23.378;2023-05-24T03:34:22;94944.38;;;13.95;100.00
20077;BME280;12348;42.710;23.378;2023-05-24T03:36:49;94949.44;;;14.71;100.00
20077;BME280;12348;42.710;23.378;2023-05-24T03:39:16;94947.44;;;15.62;100.00
20077;BME280;12348;42.710;23.378;2023-05-24T03:41:42;94964.72;;;15.96;100.00
20077;BME280;12348;42.710;23.378;2023-05-24T03:44:11;94975.50;;;16.85;100.00
20077;BME280;12348;42.710;23.378;2023-05-24T03:46:38;94961.63;;;16.99;100.00
20077;BME280;12348;42.710;23.378;2023-05-24T03:49:05;94968.03;;;17.60;100.00
20077;BME280;12348;42.710;23.378;2023-05-24T03:51:33;94950.47;;;18.31;95.20
20077;BME280;12348;42.710;23.378;2023-05-24T03:54:00;94952.66;;;19.06;88.20
20077;BME280;12348;42.710;23.378;2023-05-24T03:56:27;94948.91;;;19.27;84.54
20077;BME280;12348;42.710;23.378;2023-05-24T03:58:54;94953.41;;;19.63;80.69
20077;BME280;12348;42.710;23.378;2023-05-24T04:01:25;94950.41;;;20.16;80.42
20077;BME280;12348;42.710;23.378;2023-05-24T04:03:53;94958.06;;;21.16;75.40
20077;BME280;12348;42.710;23.378;2023-05-24T04:06:20;94953.56;;;20.69;73.05
20077;BME280;12348;42.710;23.378;2023-05-24T04:08:53;94964.75;;;20.79;73.09
20077;BME280;12348;42.710;23.378;2023-05-24T04:11:20;94965.91;;;21.79;68.97
20077;BME280;12348;42.710;23.378;2023-05-24T04:13:48;94972.00;;;21.69;68.70
20077;BME280;12348;42.710;23.378;2023-05-24T04:16:15;94969.59;;;21.44;69.32
20077;BME280;12348;42.710;23.378;2023-05-24T04:18:43;94974.25;;;21.86;68.56
20077;BME280;12348;42.710;23.378;2023-05-24T04:21:10;94973.50;;;22.35;65.55
20077;BME280;12348;42.710;23.378;2023-05-24T04:23:37;94966.28;;;22.50;64.85
20077;BME280;12348;42.710;23.378;2023-05-24T04:26:04;94964.19;;;23.30;62.84
20077;BME280;12348;42.710;23.378;2023-05-24T04:28:31;94966.00;;;24.89;58.14
20077;BME280;12348;42.710;23.378;2023-05-24T04:30:58;94973.34;;;25.41;54.71
20077;BME280;12348;42.710;23.378;2023-05-24T04:33:26;94972.00;;;25.06;55.15
20077;BME280;12348;42.710;23.378;2023-05-24T04:35:55;94975.06;;;26.17;52.50
20077;BME280;12348;42.710;23.378;2023-05-24T04:38:22;94971.75;;;27.36;49.89
20077;BME280;12348;42.710;23.378;2023-05-24T04:40:49;94979.66;;;25.45;51.55
20077;BME280;12348;42.710;23.378;2023-05-24T04:43:16;94977.44;;;26.00;52.07
20077;BME280;12348;42.710;23.378;2023-05-24T04:45:43;94980.38;;;27.56;49.04
20077;BME280;12348;42.710;23.378;2023-05-24T04:48:10;94978.78;;;27.51;48.09
20077;BME280;12348;42.710;23.378;2023-05-24T04:50:37;94987.16;;;29.42;44.11
20077;BME280;12348;42.710;23.378;2023-05-24T04:53:05;94986.22;;;28.32;43.24
20077;BME280;12348;42.710;23.378;2023-05-24T04:55:32;94981.19;;;29.43;43.46
20077;BME280;12348;42.710;23.378;2023-05-24T04:58:00;94989.69;;;30.21;40.18
20077;BME280;12348;42.710;23.378;2023-05-24T05:00:27;94980.88;;;31.20;38.67
20077;BME280;12348;42.710;23.378;2023-05-24T05:02:54;94987.34;;;31.13;38.60
20077;BME280;12348;42.710;23.378;2023-05-24T05:05:21;94991.63;;;28.98;41.12
20077;BME280;12348;42.710;23.378;2023-05-24T05:07:48;94989.00;;;27.62;44.47
20077;BME280;12348;42.710;23.378;2023-05-24T05:10:16;94991.75;;;28.39;43.80
20077;BME280;12348;42.710;23.378;2023-05-24T05:12:43;94986.72;;;30.05;41.75
20077;BME280;12348;42.710;23.378;2023-05-24T05:15:10;94989.97;;;29.38;42.31
20077;BME280;12348;42.710;23.378;2023-05-24T05:17:37;94992.91;;;29.89;41.10
20077;BME280;12348;42.710;23.378;2023-05-24T05:20:05;94993.50;;;29.05;42.30
20077;BME280;12348;42.710;23.378;2023-05-24T05:22:32;94997.22;;;28.46;44.83
20077;BME280;12348;42.710;23.378;2023-05-24T05:24:59;94996.19;;;29.15;42.83
20077;BME280;12348;42.710;23.378;2023-05-24T05:27:28;94995.81;;;29.13;42.53
20077;BME280;12348;42.710;23.378;2023-05-24T05:29:55;94992.38;;;29.02;42.72
20077;BME280;12348;42.710;23.378;2023-05-24T05:32:22;94992.81;;;28.93;42.96
20077;BME280;12348;42.710;23.378;2023-05-24T05:34:49;95000.13;;;27.51;45.02
20077;BME280;12348;42.710;23.378;2023-05-24T05:37:16;94999.19;;;26.59;47.88
20077;BME280;12348;42.710;23.378;2023-05-24T05:39:43;95006.22;;;26.28;49.63
20077;BME280;12348;42.710;23.378;2023-05-24T05:42:09;94997.84;;;25.67;51.98
20077;BME280;12348;42.710;23.378;2023-05-24T05:44:37;94995.50;;;27.26;49.58
20077;BME280;12348;42.710;23.378;2023-05-24T05:47:04;94992.16;;;28.79;46.10
20077;BME280;12348;42.710;23.378;2023-05-24T05:49:32;95001.06;;;29.38;43.87
20077;BME280;12348;42.710;23.378;2023-05-24T05:52:00;94999.63;;;28.40;44.64
20077;BME280;12348;42.710;23.378;2023-05-24T05:54:27;95000.31;;;28.55;45.77
20077;BME280;12348;42.710;23.378;2023-05-24T05:56:55;94994.00;;;28.51;43.88
20077;BME280;12348;42.710;23.378;2023-05-24T05:59:22;94992.28;;;29.78;43.59
20077;BME280;12348;42.710;23.378;2023-05-24T06:01:51;95007.06;;;31.62;38.96
20077;BME280;12348;42.710;23.378;2023-05-24T06:04:17;95001.84;;;31.84;38.52
20077;BME280;12348;42.710;23.378;2023-05-24T06:06:44;95007.16;;;29.26;42.91
20077;BME280;12348;42.710;23.378;2023-05-24T06:09:14;95004.53;;;28.15;45.46
20077;BME280;12348;42.710;23.378;2023-05-24T06:11:41;95017.66;;;27.01;49.23
20077;BME280;12348;42.710;23.378;2023-05-24T06:14:09;95009.22;;;27.51;48.78
20077;BME280;12348;42.710;23.378;2023-05-24T06:16:37;95002.47;;;29.54;42.49
20077;BME280;12348;42.710;23.378;2023-05-24T06:19:09;95008.22;;;26.77;48.38
20077;BME280;12348;42.710;23.378;2023-05-24T06:21:35;95005.28;;;27.52;50.59
20077;BME280;12348;42.710;23.378;2023-05-24T06:24:02;95009.50;;;30.23;44.13
20077;BME280;12348;42.710;23.378;2023-05-24T06:26:29;95004.63;;;31.25;40.74
20077;BME280;12348;42.710;23.378;2023-05-24T06:28:56;95003.41;;;32.58;39.13
20077;BME280;12348;42.710;23.378;2023-05-24T06:31:23;95003.19;;;33.43;37.20
20077;BME280;12348;42.710;23.378;2023-05-24T06:33:50;94996.44;;;34.12;36.26
20077;BME280;12348;42.710;23.378;2023-05-24T06:36:18;95011.69;;;35.44;35.12
20077;BME280;12348;42.710;23.378;2023-05-24T06:38:45;95007.00;;;36.38;33.20
20077;BME280;12348;42.710;23.378;2023-05-24T06:41:11;95004.25;;;37.98;31.30
20077;BME280;12348;42.710;23.378;2023-05-24T06:43:38;95003.47;;;37.79;30.77
20077;BME280;12348;42.710;23.378;2023-05-24T06:46:05;95000.09;;;37.56;30.70
20077;BME280;12348;42.710;23.378;2023-05-24T06:48:32;94999.25;;;34.63;33.96
20077;BME280;12348;42.710;23.378;2023-05-24T06:50:59;95000.34;;;32.00;37.52
20077;BME280;12348;42.710;23.378;2023-05-24T06:53:27;94997.84;;;29.78;41.69
20077;BME280;12348;42.710;23.378;2023-05-24T06:55:54;95003.81;;;29.04;44.82
20077;BME280;12348;42.710;23.378;2023-05-24T06:58:21;94991.78;;;29.52;45.39
20077;BME280;12348;42.710;23.378;2023-05-24T07:00:48;94990.66;;;29.46;43.69
20077;BME280;12348;42.710;23.378;2023-05-24T07:03:15;94996.06;;;29.60;42.65
20077;BME280;12348;42.710;23.378;2023-05-24T07:05:42;94982.28;;;29.50;45.44
20077;BME280;12348;42.710;23.378;2023-05-24T07:08:09;94986.34;;;30.33;44.01
20077;BME280;12348;42.710;23.378;2023-05-24T07:10:37;94988.72;;;30.82;41.84
20077;BME280;12348;42.710;23.378;2023-05-24T07:13:04;94989.72;;;31.15;43.02
20077;BME280;12348;42.710;23.378;2023-05-24T07:15:31;94994.94;;;32.78;39.93
20077;BME280;12348;42.710;23.378;2023-05-24T07:17:57;94990.28;;;33.04;38.54
20077;BME280;12348;42.710;23.378;2023-05-24T07:20:24;94990.63;;;32.90;38.72
20077;BME280;12348;42.710;23.378;2023-05-24T07:22:52;94995.13;;;32.54;39.42
20077;BME280;12348;42.710;23.378;2023-05-24T07:25:19;94994.56;;;32.27;40.38
20077;BME280;12348;42.710;23.378;2023-05-24T07:27:48;94986.16;;;31.54;42.28
20077;BME280;12348;42.710;23.378;2023-05-24T07:30:15;94992.34;;;33.45;38.44
20077;BME280;12348;42.710;23.378;2023-05-24T07:32:42;94991.19;;;34.65;36.07
20077;BME280;12348;42.710;23.378;2023-05-24T07:35:10;94987.78;;;33.93;37.06
20077;BME280;12348;42.710;23.378;2023-05-24T07:37:38;94986.97;;;33.67;37.09
20077;BME280;12348;42.710;23.378;2023-05-24T07:40:06;94995.31;;;34.73;35.21
20077;BME280;12348;42.710;23.378;2023-05-24T07:42:35;95000.38;;;34.53;35.71
20077;BME280;12348;42.710;23.378;2023-05-24T07:45:05;94994.84;;;33.27;37.97
20077;BME280;12348;42.710;23.378;2023-05-24T07:47:33;94993.50;;;32.37;38.02
20077;BME280;12348;42.710;23.378;2023-05-24T07:50:00;94991.06;;;32.23;40.04
20077;BME280;12348;42.710;23.378;2023-05-24T07:52:27;94990.72;;;34.28;37.41
20077;BME280;12348;42.710;23.378;2023-05-24T07:54:54;94981.44;;;34.06;36.72
20077;BME280;12348;42.710;23.378;2023-05-24T07:57:21;94982.13;;;33.55;38.22
20077;BME280;12348;42.710;23.378;2023-05-24T07:59:48;94970.94;;;34.61;37.55
20077;BME280;12348;42.710;23.378;2023-05-24T08:02:16;94974.78;;;33.32;38.19
20077;BME280;12348;42.710;23.378;2023-05-24T08:04:43;94984.88;;;31.59;41.57
20077;BME280;12348;42.710;23.378;2023-05-24T08:07:11;94977.22;;;33.01;39.87
20077;BME280;12348;42.710;23.378;2023-05-24T08:09:38;94974.22;;;34.21;37.14
20077;BME280;12348;42.710;23.378;2023-05-24T08:12:06;94977.72;;;33.83;38.00
20077;BME280;12348;42.710;23.378;2023-05-24T08:14:33;94981.25;;;34.00;37.51
20077;BME280;12348;42.710;23.378;2023-05-24T08:17:00;94976.66;;;32.61;38.41
20077;BME280;12348;42.710;23.378;2023-05-24T08:19:28;94974.31;;;31.90;40.13
20077;BME280;12348;42.710;23.378;2023-05-24T08:22:00;94975.41;;;34.45;36.54
20077;BME280;12348;42.710;23.378;2023-05-24T08:24:29;94974.50;;;34.74;35.92
20077;BME280;12348;42.710;23.378;2023-05-24T08:26:56;94962.41;;;33.46;36.49
20077;BME280;12348;42.710;23.378;2023-05-24T08:29:23;94961.59;;;32.42;39.05
20077;BME280;12348;42.710;23.378;2023-05-24T08:31:50;94961.63;;;33.45;38.57
20077;BME280;12348;42.710;23.378;2023-05-24T08:34:17;94970.63;;;34.59;34.58
20077;BME280;12348;42.710;23.378;2023-05-24T08:36:46;94968.44;;;34.76;33.45
20077;BME280;12348;42.710;23.378;2023-05-24T08:39:13;94973.06;;;36.45;31.14
20077;BME280;12348;42.710;23.378;2023-05-24T08:41:40;94969.63;;;33.30;33.56
20077;BME280;12348;42.710;23.378;2023-05-24T08:44:07;94971.22;;;34.88;31.60
20077;BME280;12348;42.710;23.378;2023-05-24T08:46:34;94973.97;;;34.03;29.64
20077;BME280;12348;42.710;23.378;2023-05-24T08:49:02;94963.72;;;32.67;31.57
20077;BME280;12348;42.710;23.378;2023-05-24T08:51:29;94967.38;;;33.25;31.76
20077;BME280;12348;42.710;23.378;2023-05-24T08:53:58;94972.09;;;32.83;30.18
20077;BME280;12348;42.710;23.378;2023-05-24T08:56:26;94961.84;;;32.47;30.43
20077;BME280;12348;42.710;23.378;2023-05-24T08:58:53;94962.19;;;33.11;30.08
20077;BME280;12348;42.710;23.378;2023-05-24T09:01:20;94965.97;;;32.23;30.91
20077;BME280;12348;42.710;23.378;2023-05-24T09:03:49;94961.75;;;31.62;31.54
20077;BME280;12348;42.710;23.378;2023-05-24T09:06:17;94962.69;;;33.22;29.93
20077;BME280;12348;42.710;23.378;2023-05-24T09:08:44;94957.03;;;32.64;32.42
20077;BME280;12348;42.710;23.378;2023-05-24T09:11:14;94970.44;;;33.02;31.05
20077;BME280;12348;42.710;23.378;2023-05-24T09:13:43;94960.34;;;32.59;31.08
20077;BME280;12348;42.710;23.378;2023-05-24T09:16:10;94962.00;;;32.56;30.51
20077;BME280;12348;42.710;23.378;2023-05-24T09:18:39;94961.84;;;33.80;29.88
20077;BME280;12348;42.710;23.378;2023-05-24T09:21:06;94963.31;;;34.36;28.87
20077;BME280;12348;42.710;23.378;2023-05-24T09:23:33;94966.47;;;35.77;28.38
20077;BME280;12348;42.710;23.378;2023-05-24T09:26:05;94958.13;;;36.08;28.61
20077;BME280;12348;42.710;23.378;2023-05-24T09:28:34;94949.31;;;33.30;30.71
20077;BME280;12348;42.710;23.378;2023-05-24T09:31:02;94952.91;;;33.98;30.14
20077;BME280;12348;42.710;23.378;2023-05-24T09:33:30;94952.59;;;33.12;30.71
20077;BME280;12348;42.710;23.378;2023-05-24T09:35:58;94949.25;;;32.23;31.56
20077;BME280;12348;42.710;23.378;2023-05-24T09:38:26;94951.88;;;31.18;33.51
20077;BME280;12348;42.710;23.378;2023-05-24T09:40:59;94944.53;;;33.01;31.17
20077;BME280;12348;42.710;23.378;2023-05-24T09:43:27;94947.00;;;32.18;32.75
20077;BME280;12348;42.710;23.378;2023-05-24T09:45:57;94944.38;;;31.14;34.77
20077;BME280;12348;42.710;23.378;2023-05-24T09:48:25;94948.81;;;31.72;33.18
20077;BME280;12348;42.710;23.378;2023-05-24T09:51:01;94930.25;;;32.34;32.28
20077;BME280;12348;42.710;23.378;2023-05-24T09:53:29;94939.59;;;32.27;32.25
20077;BME280;12348;42.710;23.378;2023-05-24T09:55:58;94934.56;;;33.00;31.47
20077;BME280;12348;42.710;23.378;2023-05-24T09:58:28;94943.06;;;33.93;30.96
20077;BME280;12348;42.710;23.378;2023-05-24T10:01:04;94938.63;;;33.96;31.36
20077;BME280;12348;42.710;23.378;2023-05-24T10:03:33;94948.13;;;34.62;30.27
20077;BME280;12348;42.710;23.378;2023-05-24T10:06:02;94938.47;;;35.11;29.81
20077;BME280;12348;42.710;23.378;2023-05-24T10:08:32;94935.00;;;35.07;28.31
20077;BME280;12348;42.710;23.378;2023-05-24T10:11:01;94938.59;;;33.58;30.47
20077;BME280;12348;42.710;23.378;2023-05-24T10:13:29;94936.94;;;34.37;30.53
20077;BME280;12348;42.710;23.378;2023-05-24T10:15:57;94932.13;;;34.24;29.82
20077;BME280;12348;42.710;23.378;2023-05-24T10:18:26;94930.47;;;32.89;31.60
20077;BME280;12348;42.710;23.378;2023-05-24T10:20:54;94923.84;;;33.70;29.14
20077;BME280;12348;42.710;23.378;2023-05-24T10:23:22;94938.63;;;34.09;28.35
20077;BME280;12348;42.710;23.378;2023-05-24T10:25:53;94928.41;;;30.99;31.20
20077;BME280;12348;42.710;23.378;2023-05-24T10:28:23;94919.78;;;31.33;31.56
20077;BME280;12348;42.710;23.378;2023-05-24T10:31:01;94926.56;;;29.37;32.92
20077;BME280;12348;42.710;23.378;2023-05-24T10:33:31;94932.47;;;27.66;35.43
20077;BME280;12348;42.710;23.378;2023-05-24T10:36:01;94912.41;;;28.56;35.21
20077;BME280;12348;42.710;23.378;2023-05-24T10:38:29;94915.56;;;27.50;37.82
20077;BME280;12348;42.710;23.378;2023-05-24T10:40:56;94914.69;;;28.64;35.76
20077;BME280;12348;42.710;23.378;2023-05-24T10:43:23;94910.84;;;28.92;34.56
20077;BME280;12348;42.710;23.378;2023-05-24T10:45:51;94910.72;;;28.69;35.67
20077;BME280;12348;42.710;23.378;2023-05-24T10:48:32;94901.38;;;28.03;35.34
20077;BME280;12348;42.710;23.378;2023-05-24T10:51:30;94911.59;;;27.54;36.04
20077;BME280;12348;42.710;23.378;2023-05-24T10:54:15;94897.66;;;26.88;37.06
20077;BME280;12348;42.710;23.378;2023-05-24T10:56:46;94896.84;;;26.91;36.81
20077;BME280;12348;42.710;23.378;2023-05-24T10:59:27;94887.94;;;27.46;36.83
20077;BME280;12348;42.710;23.378;2023-05-24T11:01:55;94889.31;;;27.79;36.94
20077;BME280;12348;42.710;23.378;2023-05-24T11:04:24;94894.41;;;27.15;37.17
20077;BME280;12348;42.710;23.378;2023-05-24T11:06:55;94884.03;;;27.37;36.77
20077;BME280;12348;42.710;23.378;2023-05-24T11:09:23;94889.53;;;27.40;36.14
20077;BME280;12348;42.710;23.378;2023-05-24T11:11:54;94886.03;;;27.95;35.91
20077;BME280;12348;42.710;23.378;2023-05-24T11:14:23;94876.81;;;28.54;36.49
20077;BME280;12348;42.710;23.378;2023-05-24T11:16:50;94883.19;;;28.85;36.76
20077;BME280;12348;42.710;23.378;2023-05-24T11:19:18;94876.00;;;29.26;36.74
20077;BME280;12348;42.710;23.378;2023-05-24T11:21:48;94875.94;;;28.98;37.40
20077;BME280;12348;42.710;23.378;2023-05-24T11:24:16;94887.38;;;29.65;35.85
20077;BME280;12348;42.710;23.378;2023-05-24T11:26:43;94875.91;;;29.87;34.04
20077;BME280;12348;42.710;23.378;2023-05-24T11:29:12;94877.75;;;29.97;33.98
20077;BME280;12348;42.710;23.378;2023-05-24T11:31:47;94873.53;;;28.21;34.81
20077;BME280;12348;42.710;23.378;2023-05-24T11:34:13;94880.69;;;26.90;38.02
20077;BME280;12348;42.710;23.378;2023-05-24T11:36:42;94859.66;;;27.10;38.65
20077;BME280;12348;42.710;23.378;2023-05-24T11:39:11;94875.25;;;26.54;38.09
20077;BME280;12348;42.710;23.378;2023-05-24T11:41:38;94862.66;;;26.35;38.09
20077;BME280;12348;42.710;23.378;2023-05-24T11:44:06;94870.09;;;26.70;39.11
20077;BME280;12348;42.710;23.378;2023-05-24T11:46:34;94860.38;;;27.25;38.32
20077;BME280;12348;42.710;23.378;2023-05-24T11:49:01;94861.75;;;27.62;37.23
20077;BME280;12348;42.710;23.378;2023-05-24T11:51:30;94854.28;;;28.07;38.09
20077;BME280;12348;42.710;23.378;2023-05-24T11:53:57;94848.44;;;28.43;36.84
20077;BME280;12348;42.710;23.378;2023-05-24T11:56:27;94851.72;;;28.68;36.43
20077;BME280;12348;42.710;23.378;2023-05-24T11:59:02;94849.16;;;28.85;36.02
20077;BME280;12348;42.710;23.378;2023-05-24T12:01:30;94847.06;;;28.92;36.11
20077;BME280;12348;42.710;23.378;2023-05-24T12:03:57;94848.44;;;29.11;35.88
20077;BME280;12348;42.710;23.378;2023-05-24T12:06:33;94845.28;;;28.41;36.32
20077;BME280;12348;42.710;23.378;2023-05-24T12:09:00;94845.94;;;28.11;36.60
20077;BME280;12348;42.710;23.378;2023-05-24T12:11:31;94856.97;;;27.66;37.22
20077;BME280;12348;42.710;23.378;2023-05-24T12:13:58;94845.06;;;27.72;36.59
20077;BME280;12348;42.710;23.378;2023-05-24T12:16:26;94837.72;;;28.00;36.87
20077;BME280;12348;42.710;23.378;2023-05-24T12:18:56;94840.03;;;28.12;37.20
20077;BME280;12348;42.710;23.378;2023-05-24T12:21:24;94828.66;;;28.41;37.44
20077;BME280;12348;42.710;23.378;2023-05-24T12:23:51;94827.78;;;28.51;37.78
20077;BME280;12348;42.710;23.378;2023-05-24T12:26:19;94827.31;;;28.56;38.24
20077;BME280;12348;42.710;23.378;2023-05-24T12:28:52;94822.09;;;28.62;37.14
20077;BME280;12348;42.710;23.378;2023-05-24T12:31:19;94821.75;;;28.90;36.68
20077;BME280;12348;42.710;23.378;2023-05-24T12:33:46;94825.06;;;28.78;36.59
20077;BME280;12348;42.710;23.378;2023-05-24T12:36:14;94814.16;;;28.64;36.92
20077;BME280;12348;42.710;23.378;2023-05-24T12:38:40;94812.88;;;27.93;38.68
20077;BME280;12348;42.710;23.378;2023-05-24T12:41:09;94808.63;;;27.85;38.51
20077;BME280;12348;42.710;23.378;2023-05-24T12:43:38;94817.28;;;27.90;39.45
20077;BME280;12348;42.710;23.378;2023-05-24T12:46:06;94811.56;;;28.08;38.94
20077;BME280;12348;42.710;23.378;2023-05-24T12:48:33;94807.44;;;28.27;38.47
20077;BME280;12348;42.710;23.378;2023-05-24T12:51:00;94814.09;;;28.67;36.28
20077;BME280;12348;42.710;23.378;2023-05-24T12:53:28;94805.59;;;28.51;37.28